Time;durP1;ratioP1;P1;durP2;ratioP2;P2;SDS_P1;SDS_P2;PMS_P1;PMS_P2;Temp;Humidity;BMP_temperature;BMP_pressure;BME280_temperature;BME280_humidity;BME280_pressure;Samples;Min_cycle;Max_cycle;Signal;HPM_P1;HPM_P2
2023/04/16 00:02:11;;;;;;;43.28;21.20;;;9.90;99.90;;;;;;5095742;27;20640;-93
2023/04/16 00:04:37;;;;;;;45.80;20.75;;;9.90;99.90;;;;;;5083697;28;20055;-92
2023/04/16 00:07:02;;;;;;;48.30;19.65;;;9.90;99.90;;;;;;5110933;28;20031;-93
2023/04/16 00:09:28;;;;;;;42.90;19.52;;;9.90;99.90;;;;;;5111655;27;20634;-93
2023/04/16 00:11:54;;;;;;;47.20;20.05;;;9.90;99.90;;;;;;5114482;27;20039;-92
2023/04/16 00:14:21;;;;;;;42.22;18.80;;;9.90;99.90;;;;;;5114635;27;20078;-92
2023/04/16 00:16:47;;;;;;;54.50;21.83;;;9.90;99.90;;;;;;5091172;27;20062;-92
2023/04/16 00:19:12;;;;;;;46.85;20.58;;;9.90;99.90;;;;;;5097098;27;20043;-92
2023/04/16 00:21:39;;;;;;;54.28;21.10;;;9.90;99.90;;;;;;5112892;27;20035;-92
2023/04/16 00:24:06;;;;;;;45.60;20.05;;;9.90;99.90;;;;;;5080017;28;20080;-93
2023/04/16 00:26:32;;;;;;;49.42;21.58;;;9.90;99.90;;;;;;5076639;28;20036;-92
2023/04/16 00:28:57;;;;;;;46.25;19.77;;;9.90;99.90;;;;;;5084627;27;20031;-92
2023/04/16 00:31:27;;;;;;;44.53;19.13;;;9.90;99.90;;;;;;5076457;28;20043;-92
2023/04/16 00:33:53;;;;;;;38.78;19.98;;;9.90;99.90;;;;;;5093721;28;20042;-92
2023/04/16 00:36:19;;;;;;;39.75;20.50;;;9.90;99.90;;;;;;5110758;27;20031;-92
2023/04/16 00:38:45;;;;;;;41.30;20.45;;;9.90;99.90;;;;;;5096629;27;20116;-92
2023/04/16 00:41:10;;;;;;;43.08;20.77;;;9.90;99.90;;;;;;5094563;27;20094;-91
2023/04/16 00:43:37;;;;;;;44.63;21.83;;;9.90;99.90;;;;;;5095214;27;20043;-92
2023/04/16 00:46:05;;;;;;;46.17;20.88;;;9.90;99.90;;;;;;5096716;28;20041;-91
2023/04/16 00:48:32;;;;;;;39.95;20.95;;;9.90;99.90;;;;;;5112020;28;20035;-92
2023/04/16 00:50:59;;;;;;;42.10;21.42;;;9.90;99.90;;;;;;5094168;27;20094;-92
2023/04/16 00:53:25;;;;;;;40.58;20.75;;;9.90;99.90;;;;;;5095864;28;20087;-92
2023/04/16 00:55:51;;;;;;;39.50;20.70;;;9.90;99.90;;;;;;5094961;28;20035;-91
2023/04/16 00:58:17;;;;;;;38.33;19.17;;;9.90;99.90;;;;;;5095773;27;20039;-92
2023/04/16 01:00:43;;;;;;;39.28;21.50;;;9.90;99.90;;;;;;5111762;28;20035;-92
2023/04/16 01:03:09;;;;;;;36.17;19.58;;;9.90;99.90;;;;;;5111115;28;20038;-92
2023/04/16 01:05:35;;;;;;;40.88;19.83;;;9.90;99.90;;;;;;5095029;28;20043;-92
2023/04/16 01:08:01;;;;;;;35.40;21.02;;;9.90;99.90;;;;;;5111445;28;20056;-92
2023/04/16 01:10:27;;;;;;;38.63;21.48;;;9.90;99.90;;;;;;5095676;28;20502;-92
2023/04/16 01:12:52;;;;;;;37.72;21.40;;;9.90;99.90;;;;;;5110409;28;20043;-90
2023/04/16 01:15:18;;;;;;;35.70;20.48;;;9.90;99.90;;;;;;5090367;28;20039;-92
2023/04/16 01:17:47;;;;;;;35.97;21.80;;;9.90;99.90;;;;;;5095065;28;20531;-92
2023/04/16 01:20:13;;;;;;;37.28;20.20;;;9.90;99.90;;;;;;5086335;28;20122;-92
2023/04/16 01:22:39;;;;;;;39.20;20.40;;;9.90;99.90;;;;;;5074472;28;20043;-92
2023/04/16 01:25:04;;;;;;;41.03;20.00;;;9.90;99.90;;;;;;5079797;28;20058;-92
2023/04/16 01:27:31;;;;;;;43.75;20.48;;;9.90;99.90;;;;;;5077797;28;20039;-92
2023/04/16 01:29:57;;;;;;;42.58;19.45;;;9.90;99.90;;;;;;5094066;28;20035;-92
2023/04/16 01:32:22;;;;;;;41.88;21.50;;;9.90;99.90;;;;;;5111559;28;20448;-92
2023/04/16 01:34:48;;;;;;;42.47;20.35;;;9.90;99.90;;;;;;5095816;28;20092;-92
2023/04/16 01:37:14;;;;;;;40.75;21.50;;;9.80;99.90;;;;;;5094298;28;20031;-92
2023/04/16 01:39:39;;;;;;;37.65;19.02;;;9.80;99.90;;;;;;5074791;28;20071;-92
2023/04/16 01:42:05;;;;;;;39.55;21.40;;;9.80;99.90;;;;;;5076803;28;20130;-92
2023/04/16 01:44:31;;;;;;;36.15;21.00;;;9.80;99.90;;;;;;5094615;28;20036;-92
2023/04/16 01:46:56;;;;;;;39.85;21.45;;;9.80;99.90;;;;;;5095481;28;20088;-92
2023/04/16 01:49:22;;;;;;;34.10;19.10;;;9.80;99.90;;;;;;5092712;27;20031;-92
2023/04/16 01:51:48;;;;;;;34.10;20.35;;;9.80;99.90;;;;;;5115596;27;20039;-92
2023/04/16 01:54:13;;;;;;;38.38;20.50;;;9.80;99.90;;;;;;5116650;27;20054;-92
2023/04/16 01:56:39;;;;;;;34.45;20.00;;;9.80;99.90;;;;;;5098173;27;20070;-92
2023/04/16 01:59:05;;;;;;;35.92;19.48;;;9.80;99.90;;;;;;5116514;27;20039;-92
2023/04/16 02:01:30;;;;;;;37.47;20.45;;;9.80;99.90;;;;;;5115548;27;20476;-92
2023/04/16 02:03:56;;;;;;;39.53;19.88;;;9.80;99.90;;;;;;5116140;27;20038;-91
2023/04/16 02:06:22;;;;;;;39.85;21.90;;;9.80;99.90;;;;;;5112681;27;20158;-92
2023/04/16 02:08:48;;;;;;;39.65;21.10;;;9.70;99.90;;;;;;5096036;28;20122;-92
2023/04/16 02:11:14;;;;;;;40.88;22.02;;;9.80;99.90;;;;;;5078497;28;20036;-91
2023/04/16 02:13:39;;;;;;;43.35;20.23;;;9.70;99.90;;;;;;5095857;27;20081;-92
2023/04/16 02:16:05;;;;;;;39.58;20.45;;;9.70;99.90;;;;;;5099012;27;20074;-91
2023/04/16 02:18:31;;;;;;;37.92;20.20;;;9.70;99.90;;;;;;5097740;27;20035;-90
2023/04/16 02:20:59;;;;;;;38.95;20.95;;;9.70;99.90;;;;;;5079305;28;20066;-92
2023/04/16 02:23:24;;;;;;;41.72;21.52;;;9.70;99.90;;;;;;5094317;28;20055;-91
2023/04/16 02:25:50;;;;;;;39.30;20.73;;;9.70;99.90;;;;;;5104979;27;20031;-92
2023/04/16 02:28:16;;;;;;;34.15;19.95;;;9.70;99.90;;;;;;5099345;27;20519;-92
2023/04/16 02:30:42;;;;;;;29.13;18.67;;;9.70;99.90;;;;;;5115577;27;20122;-91
2023/04/16 02:33:09;;;;;;;35.50;20.17;;;9.70;99.90;;;;;;5096341;27;20042;-91
2023/04/16 02:35:36;;;;;;;35.13;19.48;;;9.70;99.90;;;;;;5097900;27;20042;-91
2023/04/16 02:38:03;;;;;;;38.72;20.58;;;9.60;99.90;;;;;;5088061;28;20084;-91
2023/04/16 02:40:29;;;;;;;37.17;21.50;;;9.60;99.90;;;;;;5104309;27;20036;-91
2023/04/16 02:42:55;;;;;;;40.17;21.50;;;9.60;99.90;;;;;;5097640;27;20046;-91
2023/04/16 02:45:21;;;;;;;39.28;21.52;;;9.60;99.90;;;;;;5108224;27;20038;-91
2023/04/16 02:47:47;;;;;;;36.30;18.63;;;9.60;99.90;;;;;;5098059;27;20039;-91
2023/04/16 02:50:13;;;;;;;38.05;19.38;;;9.50;99.90;;;;;;5096847;27;20042;-91
2023/04/16 02:52:39;;;;;;;33.72;19.52;;;9.50;99.90;;;;;;5098196;27;20039;-91
2023/04/16 02:55:05;;;;;;;35.70;20.45;;;9.50;99.90;;;;;;5098021;27;20536;-91
2023/04/16 02:57:31;;;;;;;34.95;19.85;;;9.50;99.90;;;;;;5115003;27;20488;-91
2023/04/16 02:59:57;;;;;;;41.17;21.30;;;9.50;99.90;;;;;;5096992;27;20080;-91
2023/04/16 03:02:23;;;;;;;38.80;21.58;;;9.50;99.90;;;;;;5090770;28;20044;-91
2023/04/16 03:04:48;;;;;;;41.65;21.98;;;9.50;99.90;;;;;;5076322;28;20040;-90
2023/04/16 03:07:14;;;;;;;38.08;21.52;;;9.50;99.90;;;;;;5078129;27;20039;-91
2023/04/16 03:09:40;;;;;;;36.33;19.60;;;9.50;99.90;;;;;;5083174;28;20047;-91
2023/04/16 03:12:06;;;;;;;36.97;21.13;;;9.40;99.90;;;;;;5076954;28;20047;-90
2023/04/16 03:14:31;;;;;;;35.83;20.27;;;9.40;99.90;;;;;;5092522;27;20039;-91
2023/04/16 03:16:57;;;;;;;36.17;21.40;;;9.40;99.90;;;;;;5114895;27;20083;-91
2023/04/16 03:19:23;;;;;;;40.75;21.77;;;9.40;99.90;;;;;;5096298;27;20040;-91
2023/04/16 03:21:49;;;;;;;41.35;20.30;;;9.40;99.90;;;;;;5096557;27;20061;-91
2023/04/16 03:24:14;;;;;;;35.10;18.65;;;9.40;99.90;;;;;;5113209;27;20110;-91
2023/04/16 03:26:40;;;;;;;44.08;22.42;;;9.40;99.90;;;;;;5114306;27;20058;-91
2023/04/16 03:29:06;;;;;;;38.03;20.88;;;9.40;99.90;;;;;;5097783;27;20031;-91
2023/04/16 03:31:31;;;;;;;37.35;20.85;;;9.40;99.90;;;;;;5112379;27;20039;-91
2023/04/16 03:33:57;;;;;;;42.22;21.60;;;9.40;99.90;;;;;;5097338;27;20056;-91
2023/04/16 03:36:23;;;;;;;37.78;21.17;;;9.40;99.90;;;;;;5090683;28;20245;-91
2023/04/16 03:38:48;;;;;;;40.08;20.90;;;9.40;99.90;;;;;;5093881;28;20412;-91
2023/04/16 03:41:14;;;;;;;36.08;20.02;;;9.40;99.90;;;;;;5097299;27;20454;-90
2023/04/16 03:43:40;;;;;;;36.63;21.65;;;9.40;99.90;;;;;;5097179;27;20039;-90
2023/04/16 03:46:06;;;;;;;41.40;21.33;;;9.30;99.90;;;;;;5097347;27;20499;-91
2023/04/16 03:48:31;;;;;;;37.30;21.58;;;9.30;99.90;;;;;;5096010;27;20039;-92
2023/04/16 03:50:57;;;;;;;39.42;21.55;;;9.30;99.90;;;;;;5097436;27;20039;-91
2023/04/16 03:53:23;;;;;;;38.42;21.65;;;9.30;99.90;;;;;;5096195;27;20557;-92
2023/04/16 03:55:50;;;;;;;39.38;21.25;;;9.30;99.90;;;;;;5097645;27;20484;-91
2023/04/16 03:58:16;;;;;;;38.00;21.38;;;9.30;99.90;;;;;;5096692;27;20087;-91
2023/04/16 04:00:42;;;;;;;41.67;22.17;;;9.30;99.90;;;;;;5121924;27;20445;-92
2023/04/16 04:03:11;;;;;;;37.42;21.45;;;9.30;99.90;;;;;;5113821;27;20043;-91
2023/04/16 04:05:40;;;;;;;37.42;21.70;;;9.30;99.90;;;;;;5088973;28;20042;-91
2023/04/16 04:08:06;;;;;;;35.35;19.98;;;9.30;99.90;;;;;;5092787;28;20054;-91
2023/04/16 04:10:35;;;;;;;35.47;20.23;;;9.30;99.90;;;;;;5095517;27;20122;-91
2023/04/16 04:13:03;;;;;;;36.92;21.40;;;9.30;99.90;;;;;;5080830;28;20046;-91
2023/04/16 04:15:29;;;;;;;36.03;21.20;;;9.30;99.90;;;;;;5076932;28;20122;-91
2023/04/16 04:17:55;;;;;;;37.33;20.10;;;9.30;99.90;;;;;;5088853;27;20184;-91
2023/04/16 04:20:21;;;;;;;36.50;20.23;;;9.30;99.90;;;;;;5112903;27;20042;-91
2023/04/16 04:22:46;;;;;;;40.90;21.75;;;9.20;99.90;;;;;;5112204;27;20073;-91
2023/04/16 04:25:12;;;;;;;34.30;20.35;;;9.20;99.90;;;;;;5096427;27;20039;-90
2023/04/16 04:27:38;;;;;;;33.78;21.25;;;9.20;99.90;;;;;;5096385;27;20031;-91
2023/04/16 04:30:04;;;;;;;34.53;19.45;;;9.20;99.90;;;;;;5096292;27;20051;-91
2023/04/16 04:32:30;;;;;;;34.78;22.00;;;9.20;99.90;;;;;;5113377;27;20042;-90
2023/04/16 04:34:56;;;;;;;36.45;20.70;;;9.20;99.90;;;;;;5096352;27;20031;-91
2023/04/16 04:37:22;;;;;;;33.63;20.10;;;9.20;99.90;;;;;;5096286;27;20035;-91
2023/04/16 04:39:47;;;;;;;33.38;20.73;;;9.20;99.90;;;;;;5093036;27;20399;-91
2023/04/16 04:42:16;;;;;;;33.35;21.25;;;9.20;99.90;;;;;;5089663;27;20103;-90
2023/04/16 04:44:41;;;;;;;30.85;19.60;;;9.20;99.90;;;;;;5094843;27;20049;-91
2023/04/16 04:47:07;;;;;;;37.08;20.05;;;9.20;99.90;;;;;;5112299;27;20565;-91
2023/04/16 04:49:32;;;;;;;33.38;19.98;;;9.20;99.90;;;;;;5095560;27;20828;-91
2023/04/16 04:51:58;;;;;;;38.03;20.88;;;9.20;99.90;;;;;;5113046;28;20103;-92
2023/04/16 04:54:23;;;;;;;36.15;21.40;;;9.20;99.90;;;;;;5095245;27;20706;-91
2023/04/16 04:56:51;;;;;;;34.67;20.35;;;9.20;99.90;;;;;;5095509;28;20126;-91
2023/04/16 04:59:16;;;;;;;37.95;20.50;;;9.20;99.90;;;;;;5094759;28;20495;-91
2023/04/16 05:01:42;;;;;;;35.50;20.48;;;9.20;99.90;;;;;;5094576;28;20065;-91
2023/04/16 05:04:08;;;;;;;38.65;21.67;;;9.20;99.90;;;;;;5094601;28;20039;-91
2023/04/16 05:06:33;;;;;;;34.17;19.83;;;9.30;99.90;;;;;;5094141;28;20049;-91
2023/04/16 05:08:59;;;;;;;35.65;21.13;;;9.30;99.90;;;;;;5124717;28;20377;-91
2023/04/16 05:11:24;;;;;;;35.42;19.58;;;9.20;99.90;;;;;;5111948;28;20442;-91
2023/04/16 05:13:50;;;;;;;34.92;20.67;;;9.30;99.90;;;;;;5095215;28;20075;-91
2023/04/16 05:16:16;;;;;;;36.45;20.90;;;9.30;99.90;;;;;;5096954;28;20066;-91
2023/04/16 05:18:42;;;;;;;36.15;20.90;;;9.30;99.90;;;;;;5091092;28;20074;-91
2023/04/16 05:21:07;;;;;;;36.03;20.20;;;9.30;99.90;;;;;;5095860;28;20035;-92
2023/04/16 05:23:33;;;;;;;33.90;18.38;;;9.30;99.90;;;;;;5095448;28;20467;-92
2023/04/16 05:25:58;;;;;;;38.38;20.83;;;9.30;99.90;;;;;;5109953;27;20049;-90
2023/04/16 05:28:24;;;;;;;33.78;18.75;;;9.30;99.90;;;;;;5099195;27;20435;-91
2023/04/16 05:30:50;;;;;;;35.03;20.40;;;9.40;99.90;;;;;;5098390;27;20034;-91
2023/04/16 05:33:16;;;;;;;33.00;18.70;;;9.40;99.90;;;;;;5093656;27;20039;-91
2023/04/16 05:35:41;;;;;;;35.60;20.33;;;9.40;99.90;;;;;;5115256;27;20046;-92
2023/04/16 05:38:07;;;;;;;35.72;21.30;;;9.40;99.90;;;;;;5104695;27;20038;-91
2023/04/16 05:40:33;;;;;;;34.58;19.33;;;9.40;99.90;;;;;;5097226;27;20039;-91
2023/04/16 05:42:58;;;;;;;33.88;20.23;;;9.40;99.90;;;;;;5097840;27;20079;-91
2023/04/16 05:45:24;;;;;;;35.60;20.52;;;9.50;99.90;;;;;;5083958;28;20078;-91
2023/04/16 05:47:49;;;;;;;35.85;18.45;;;9.50;99.90;;;;;;5079150;28;20035;-91
2023/04/16 05:50:15;;;;;;;36.92;20.48;;;9.40;99.90;;;;;;5091496;27;20613;-91
2023/04/16 05:52:41;;;;;;;35.42;20.02;;;9.50;99.90;;;;;;5115561;27;20035;-91
2023/04/16 05:55:07;;;;;;;34.75;19.30;;;9.40;99.90;;;;;;5113206;27;20035;-92
2023/04/16 05:57:32;;;;;;;35.10;18.20;;;9.50;99.90;;;;;;5095804;28;20040;-91
2023/04/16 05:59:58;;;;;;;34.30;19.98;;;9.50;99.90;;;;;;5082493;27;20057;-91
2023/04/16 06:02:23;;;;;;;37.35;19.42;;;9.50;99.90;;;;;;5094833;27;20047;-92
2023/04/16 06:04:49;;;;;;;38.47;18.80;;;9.50;99.90;;;;;;5114738;27;20043;-91
2023/04/16 06:07:15;;;;;;;33.58;19.67;;;9.50;99.90;;;;;;5097654;27;20087;-91
2023/04/16 06:09:41;;;;;;;32.78;19.30;;;9.40;99.90;;;;;;5096686;27;20484;-90
2023/04/16 06:12:06;;;;;;;37.25;19.45;;;9.40;99.90;;;;;;5097820;27;20050;-90
2023/04/16 06:14:32;;;;;;;38.80;21.38;;;9.40;99.90;;;;;;5115029;27;20056;-90
2023/04/16 06:16:57;;;;;;;36.20;19.67;;;9.40;99.90;;;;;;5099308;27;20537;-91
2023/04/16 06:19:23;;;;;;;35.17;19.02;;;9.40;99.90;;;;;;5092781;28;20509;-92
2023/04/16 06:21:49;;;;;;;33.03;19.25;;;9.40;99.90;;;;;;5077402;28;20039;-92
2023/04/16 06:24:17;;;;;;;37.53;20.02;;;9.40;99.90;;;;;;5092743;28;20067;-90
2023/04/16 06:26:43;;;;;;;37.22;18.75;;;9.40;99.90;;;;;;5097881;27;20059;-90
2023/04/16 06:29:08;;;;;;;35.42;18.33;;;9.40;99.90;;;;;;5124865;27;20035;-91
2023/04/16 06:31:34;;;;;;;33.33;20.17;;;9.40;99.90;;;;;;5106554;27;20083;-90
2023/04/16 06:34:00;;;;;;;30.67;17.65;;;9.50;99.90;;;;;;5104046;27;20071;-91
2023/04/16 06:36:26;;;;;;;34.03;18.92;;;9.50;99.90;;;;;;5096921;27;20091;-91
2023/04/16 06:38:52;;;;;;;40.50;19.92;;;9.50;99.90;;;;;;5115065;27;20444;-91
2023/04/16 06:41:18;;;;;;;35.15;18.98;;;9.50;99.90;;;;;;5123108;27;20027;-92
2023/04/16 06:43:43;;;;;;;38.40;19.55;;;9.50;99.90;;;;;;5105672;27;20043;-93
2023/04/16 06:46:09;;;;;;;35.22;19.67;;;9.60;99.90;;;;;;5099916;27;20039;-92
2023/04/16 06:48:35;;;;;;;35.10;19.92;;;9.60;99.90;;;;;;5113362;27;20110;-92
2023/04/16 06:51:01;;;;;;;36.80;19.77;;;9.60;99.90;;;;;;5097356;27;20176;-92
2023/04/16 06:53:27;;;;;;;32.78;19.83;;;9.70;99.90;;;;;;5097416;27;20477;-92
2023/04/16 06:55:52;;;;;;;32.90;18.45;;;9.70;99.90;;;;;;5097593;28;20031;-92
2023/04/16 06:58:19;;;;;;;34.28;19.20;;;9.80;99.90;;;;;;5078451;28;20043;-92
2023/04/16 07:00:45;;;;;;;34.40;18.80;;;9.90;99.90;;;;;;5093815;28;20511;-92
2023/04/16 07:03:10;;;;;;;31.88;18.73;;;9.90;99.90;;;;;;5090888;27;20039;-92
2023/04/16 07:05:36;;;;;;;35.17;18.98;;;9.90;99.90;;;;;;5096933;27;20050;-93
2023/04/16 07:08:02;;;;;;;33.97;17.33;;;9.90;99.90;;;;;;5096569;27;20035;-92
2023/04/16 07:10:27;;;;;;;33.13;19.55;;;10.00;99.90;;;;;;5113523;27;20062;-92
2023/04/16 07:12:53;;;;;;;35.63;18.73;;;10.10;99.90;;;;;;5097537;27;20372;-92
2023/04/16 07:15:19;;;;;;;34.97;18.75;;;10.10;99.90;;;;;;5085109;28;20089;-92
2023/04/16 07:17:44;;;;;;;32.33;19.30;;;10.20;99.90;;;;;;5078413;28;20036;-92
2023/04/16 07:20:10;;;;;;;34.70;18.60;;;10.20;99.90;;;;;;5085009;28;20523;-92
2023/04/16 07:22:36;;;;;;;36.58;19.15;;;10.20;99.90;;;;;;5077083;28;20031;-92
2023/04/16 07:25:01;;;;;;;30.38;18.00;;;10.30;99.90;;;;;;5076585;27;20048;-91
2023/04/16 07:27:27;;;;;;;35.53;19.27;;;10.30;99.90;;;;;;5115118;27;20070;-92
2023/04/16 07:29:54;;;;;;;33.47;18.58;;;10.30;99.90;;;;;;5097327;27;20042;-92
2023/04/16 07:32:21;;;;;;;35.30;18.70;;;10.40;99.90;;;;;;5082950;28;20044;-92
2023/04/16 07:34:46;;;;;;;33.10;18.23;;;10.40;99.90;;;;;;5075680;28;20118;-92
2023/04/16 07:37:12;;;;;;;33.17;17.83;;;10.40;99.90;;;;;;5079822;27;20089;-94
2023/04/16 07:39:38;;;;;;;33.67;18.65;;;10.50;99.90;;;;;;5101516;28;20607;-92
2023/04/16 07:42:03;;;;;;;34.72;17.48;;;10.50;99.90;;;;;;5076663;28;20047;-93
2023/04/16 07:44:29;;;;;;;33.05;17.88;;;10.50;99.90;;;;;;5101194;27;20492;-92
2023/04/16 07:46:55;;;;;;;33.08;19.85;;;10.60;99.90;;;;;;5113365;27;20088;-92
2023/04/16 07:49:20;;;;;;;34.60;18.67;;;10.60;99.90;;;;;;5097307;27;20480;-92
2023/04/16 07:51:46;;;;;;;34.28;19.55;;;10.60;99.90;;;;;;5095583;27;20083;-91
2023/04/16 07:54:12;;;;;;;32.22;17.88;;;10.60;99.90;;;;;;5097134;27;20073;-93
2023/04/16 07:56:37;;;;;;;34.28;18.65;;;10.60;99.90;;;;;;5096778;27;20031;-93
2023/04/16 07:59:03;;;;;;;34.50;18.88;;;10.60;99.90;;;;;;5097194;27;20031;-94
2023/04/16 08:01:29;;;;;;;31.85;19.40;;;10.70;99.90;;;;;;5112001;27;20035;-93
2023/04/16 08:03:55;;;;;;;37.40;19.52;;;10.70;99.90;;;;;;5105456;27;20038;-93
2023/04/16 08:06:20;;;;;;;32.83;18.63;;;10.70;99.90;;;;;;5112944;27;20073;-93
2023/04/16 08:08:46;;;;;;;39.05;19.10;;;10.80;99.90;;;;;;5095515;27;20073;-93
2023/04/16 08:11:11;;;;;;;31.35;17.60;;;10.80;99.90;;;;;;5096649;27;20031;-93
2023/04/16 08:13:37;;;;;;;32.58;18.65;;;10.90;99.90;;;;;;5098797;27;20081;-93
2023/04/16 08:16:03;;;;;;;39.35;20.25;;;10.90;99.90;;;;;;5107337;27;20031;-93
2023/04/16 08:18:29;;;;;;;33.63;18.55;;;10.90;99.90;;;;;;5132657;27;20117;-93
2023/04/16 08:20:54;;;;;;;31.60;17.98;;;11.00;99.90;;;;;;5121133;27;20048;-93
2023/04/16 08:23:20;;;;;;;34.78;17.83;;;11.00;99.90;;;;;;5103216;27;20434;-93
2023/04/16 08:25:46;;;;;;;32.67;18.75;;;11.10;99.90;;;;;;5124245;27;20388;-93
2023/04/16 08:28:13;;;;;;;28.70;17.50;;;11.20;99.90;;;;;;5111659;27;20046;-94
2023/04/16 08:30:39;;;;;;;31.35;18.45;;;11.20;99.90;;;;;;5105930;27;20042;-94
2023/04/16 08:33:04;;;;;;;32.03;18.58;;;11.30;99.90;;;;;;5104601;27;20038;-93
2023/04/16 08:35:30;;;;;;;31.58;18.48;;;11.30;99.90;;;;;;5102524;27;20491;-93
2023/04/16 08:37:57;;;;;;;33.50;20.23;;;11.40;99.90;;;;;;5107702;27;20043;-93
2023/04/16 08:40:25;;;;;;;32.85;18.90;;;11.50;99.90;;;;;;5116621;27;20496;-93
2023/04/16 08:43:00;;;;;;;33.97;18.33;;;11.50;99.90;;;;;;5114744;27;20047;-92
2023/04/16 08:45:26;;;;;;;31.13;18.10;;;11.60;99.90;;;;;;5120242;27;20075;-94
2023/04/16 08:47:52;;;;;;;30.98;19.63;;;11.70;99.90;;;;;;5088610;28;20040;-94
2023/04/16 08:50:29;;;;;;;31.30;17.63;;;11.80;99.90;;;;;;5102753;28;20032;-93
2023/04/16 08:53:05;;;;;;;31.50;17.40;;;11.90;99.90;;;;;;5082294;28;20077;-93
2023/04/16 08:55:46;;;;;;;27.60;15.27;;;12.00;99.90;;;;;;5103523;27;20110;-94
2023/04/16 08:58:14;;;;;;;27.95;18.15;;;12.00;99.90;;;;;;5090317;27;20126;-93
2023/04/16 09:00:42;;;;;;;27.05;17.80;;;12.10;99.90;;;;;;5103200;27;20027;-93
2023/04/16 09:03:09;;;;;;;28.00;17.88;;;12.20;99.90;;;;;;5122161;27;20084;-93
2023/04/16 09:05:35;;;;;;;27.60;17.55;;;12.30;99.90;;;;;;5102601;27;20043;-92
2023/04/16 09:08:01;;;;;;;29.45;18.13;;;12.40;99.90;;;;;;5106571;27;20099;-93
2023/04/16 09:10:27;;;;;;;28.90;25.80;;;12.50;99.90;;;;;;5122486;27;20558;-94
2023/04/16 09:12:56;;;;;;;35.17;17.00;;;12.60;99.90;;;;;;5105393;27;20188;-93
2023/04/16 09:15:22;;;;;;;28.08;16.42;;;12.70;99.90;;;;;;5106415;27;20038;-95
2023/04/16 09:17:48;;;;;;;24.77;16.27;;;12.80;99.90;;;;;;5083425;28;20062;-93
2023/04/16 09:20:14;;;;;;;25.80;22.83;;;12.90;99.90;;;;;;5076064;28;20421;-93
2023/04/16 09:22:40;;;;;;;25.98;23.05;;;13.10;99.90;;;;;;5078306;28;20038;-93
2023/04/16 09:25:06;;;;;;;27.00;24.10;;;13.30;99.90;;;;;;5092904;28;20047;-93
2023/04/16 09:27:32;;;;;;;27.15;16.40;;;13.50;99.90;;;;;;5080087;28;20059;-94
2023/04/16 09:29:58;;;;;;;24.30;15.95;;;13.70;99.90;;;;;;5095551;28;20104;-93
2023/04/16 09:32:26;;;;;;;23.17;16.15;;;13.80;99.90;;;;;;5092409;28;20415;-94
2023/04/16 09:35:01;;;;;;;22.63;20.10;;;14.00;99.90;;;;;;5075520;28;20058;-94
2023/04/16 09:37:30;;;;;;;20.60;15.10;;;14.20;99.90;;;;;;5076295;28;20032;-94
2023/04/16 09:39:58;;;;;;;23.48;14.60;;;14.30;99.90;;;;;;5092785;28;20039;-94
2023/04/16 09:42:27;;;;;;;23.08;19.83;;;14.40;99.90;;;;;;5095516;28;20043;-93
2023/04/16 09:44:54;;;;;;;24.13;20.42;;;14.50;99.90;;;;;;5095876;28;20092;-94
2023/04/16 09:47:20;;;;;;;22.33;19.83;;;14.60;99.90;;;;;;5112392;28;20031;-94
2023/04/16 09:49:46;;;;;;;24.10;15.07;;;14.60;99.90;;;;;;5111748;28;20088;-92
2023/04/16 09:52:17;;;;;;;23.27;20.77;;;14.60;99.90;;;;;;5112276;28;20400;-93
2023/04/16 09:54:51;;;;;;;27.77;16.70;;;14.60;99.90;;;;;;5092597;28;20039;-93
2023/04/16 09:57:21;;;;;;;22.77;14.38;;;14.60;99.90;;;;;;5114710;28;20027;-93
2023/04/16 09:59:51;;;;;;;24.77;20.88;;;14.60;99.90;;;;;;5095721;28;20039;-94
2023/04/16 10:02:16;;;;;;;25.00;21.33;;;14.60;99.90;;;;;;5096021;28;20088;-94
2023/04/16 10:04:50;;;;;;;25.98;14.60;;;14.70;99.90;;;;;;5100206;28;20082;-93
2023/04/16 10:07:16;;;;;;;24.17;21.20;;;14.80;99.90;;;;;;5092267;28;20040;-92
2023/04/16 10:09:42;;;;;;;25.33;15.75;;;14.80;99.90;;;;;;5097561;27;20104;-94
2023/04/16 10:12:08;;;;;;;25.35;20.23;;;14.80;99.90;;;;;;5116554;27;20047;-93
2023/04/16 10:14:34;;;;;;;25.52;21.33;;;14.90;99.90;;;;;;5099735;27;20031;-93
2023/04/16 10:17:01;;;;;;;22.92;15.60;;;14.90;99.90;;;;;;5115390;27;20046;-93
2023/04/16 10:19:27;;;;;;;22.65;19.52;;;14.90;99.90;;;;;;5099619;27;20057;-94
2023/04/16 10:21:53;;;;;;;23.85;16.17;;;14.90;99.90;;;;;;5096465;27;20615;-94
2023/04/16 10:24:19;;;;;;;24.60;19.35;;;15.00;99.90;;;;;;5078861;28;20483;-94
2023/04/16 10:26:48;;;;;;;23.80;19.30;;;15.10;99.90;;;;;;5082457;27;20061;-93
2023/04/16 10:29:13;;;;;;;23.55;20.10;;;15.20;99.90;;;;;;5115711;27;20039;-93
2023/04/16 10:31:40;;;;;;;21.63;14.45;;;15.30;99.90;;;;;;5097025;27;20400;-93
2023/04/16 10:34:08;;;;;;;22.98;20.40;;;15.30;99.90;;;;;;5115020;27;20039;-93
2023/04/16 10:36:38;;;;;;;24.40;19.13;;;15.40;99.90;;;;;;5098852;27;20079;-93
2023/04/16 10:39:12;;;;;;;22.85;19.02;;;15.50;99.90;;;;;;5114993;27;20035;-93
2023/04/16 10:41:37;;;;;;;24.00;19.20;;;15.60;99.90;;;;;;5099344;27;20035;-93
2023/04/16 10:44:08;;;;;;;24.13;14.70;;;15.60;99.90;;;;;;5098683;27;20756;-93
2023/04/16 10:46:37;;;;;;;22.55;18.77;;;15.60;99.90;;;;;;5098362;27;20024;-94
2023/04/16 10:49:18;;;;;;;23.83;19.08;;;15.80;99.90;;;;;;5116241;27;20084;-94
2023/04/16 10:52:02;;;;;;;20.92;17.67;;;15.90;99.90;;;;;;5114995;27;20035;-94
2023/04/16 10:54:29;;;;;;;20.85;14.90;;;16.10;99.90;;;;;;5099839;27;20446;-93
2023/04/16 10:56:57;;;;;;;22.60;18.30;;;16.20;99.90;;;;;;5095669;27;20046;-94
2023/04/16 10:59:23;;;;;;;21.40;17.17;;;16.30;99.90;;;;;;5094058;27;20039;-94
2023/04/16 11:01:51;;;;;;;21.00;18.58;;;16.40;99.90;;;;;;5115970;27;20035;-94
2023/04/16 11:04:20;;;;;;;21.40;17.92;;;16.50;99.90;;;;;;5108335;28;20038;-94
2023/04/16 11:07:04;;;;;;;22.63;16.00;;;16.60;99.90;;;;;;5095878;28;20039;-94
2023/04/16 11:09:45;;;;;;;21.48;17.55;;;16.70;99.90;;;;;;5083449;28;20054;-94
2023/04/16 11:12:15;;;;;;;21.33;16.92;;;16.60;97.90;;;;;;5078477;28;20101;-94
2023/04/16 11:14:41;;;;;;;20.38;17.90;;;16.60;97.80;;;;;;5098482;27;20043;-95
2023/04/16 11:17:08;;;;;;;20.90;17.63;;;16.70;97.90;;;;;;5099011;27;20129;-93
2023/04/16 11:19:37;;;;;;;19.52;16.92;;;16.70;97.90;;;;;;5090833;28;20061;-94
2023/04/16 11:22:04;;;;;;;22.27;16.95;;;16.80;97.60;;;;;;5077480;28;20139;-93
2023/04/16 11:24:31;;;;;;;20.08;17.25;;;16.80;98.70;;;;;;5095310;28;20039;-93
2023/04/16 11:26:56;;;;;;;20.40;16.75;;;16.90;97.30;;;;;;5095692;27;20031;-94
2023/04/16 11:29:22;;;;;;;20.42;15.23;;;16.90;97.50;;;;;;5099333;27;20031;-94
2023/04/16 11:31:52;;;;;;;19.38;16.73;;;16.90;97.80;;;;;;5097557;27;20039;-94
2023/04/16 11:34:18;;;;;;;18.63;15.95;;;16.90;95.80;;;;;;5114913;27;20088;-94
2023/04/16 11:36:50;;;;;;;19.05;16.10;;;17.00;94.90;;;;;;5098203;27;20126;-94
2023/04/16 11:39:16;;;;;;;19.03;15.40;;;17.00;94.50;;;;;;5089668;28;20057;-94
2023/04/16 11:41:46;;;;;;;19.00;15.60;;;16.90;93.60;;;;;;5077593;28;20330;-93
2023/04/16 11:44:23;;;;;;;20.73;15.80;;;16.90;93.30;;;;;;5078132;28;20130;-94
2023/04/16 11:46:49;;;;;;;21.58;15.77;;;16.90;93.40;;;;;;5086035;27;20484;-93
2023/04/16 11:49:18;;;;;;;18.95;16.48;;;16.90;93.20;;;;;;5097072;27;20050;-94
2023/04/16 11:51:45;;;;;;;17.98;15.55;;;17.00;93.80;;;;;;5097290;27;20408;-94
2023/04/16 11:54:22;;;;;;;19.60;16.38;;;16.90;93.50;;;;;;5114848;27;20504;-94
2023/04/16 11:56:49;;;;;;;20.08;17.02;;;17.00;93.90;;;;;;5114211;27;20472;-94
2023/04/16 11:59:17;;;;;;;21.60;16.85;;;16.90;92.40;;;;;;5101174;28;20404;-94
2023/04/16 12:01:56;;;;;;;20.40;15.73;;;16.90;92.60;;;;;;5077285;28;20440;-95
2023/04/16 12:04:24;;;;;;;18.20;15.95;;;17.00;93.30;;;;;;5092141;27;20110;-94
2023/04/16 12:07:12;;;;;;;18.88;16.05;;;16.90;93.20;;;;;;5115983;27;20030;-94
2023/04/16 12:09:40;;;;;;;19.23;16.23;;;16.90;93.30;;;;;;5107015;28;20032;-94
2023/04/16 12:12:24;;;;;;;19.88;16.83;;;17.00;93.60;;;;;;5095222;28;20122;-95
2023/04/16 12:14:50;;;;;;;18.60;15.75;;;17.00;92.50;;;;;;5086486;27;20113;-95
2023/04/16 12:17:20;;;;;;;19.25;16.50;;;16.90;92.50;;;;;;5085605;27;20531;-94
2023/04/16 12:19:56;;;;;;;17.33;13.43;;;17.00;92.20;;;;;;5099898;27;20023;-95
2023/04/16 12:22:36;;;;;;;16.98;14.23;;;16.90;92.20;;;;;;5098159;27;20043;-95
2023/04/16 12:25:27;;;;;;;18.52;14.57;;;16.90;92.50;;;;;;5119781;27;20087;-94
2023/04/16 12:27:54;;;;;;;17.65;14.52;;;17.10;93.00;;;;;;5020732;28;20085;-95
2023/04/16 12:30:22;;;;;;;19.17;14.52;;;17.20;92.70;;;;;;5018354;28;20045;-95
2023/04/16 12:32:50;;;;;;;18.20;14.52;;;17.40;92.20;;;;;;5031810;28;20049;-94